createdAt,value
2018-06-24T00:00:37.179Z,99105.43
2018-06-24T00:02:49.635Z,99107.17
2018-06-24T00:05:02.100Z,99103.06
2018-06-24T00:07:14.483Z,99102.23
2018-06-24T00:09:26.953Z,99101.64
2018-06-24T00:11:39.588Z,99101.39
2018-06-24T00:13:51.928Z,99096.06
2018-06-24T00:16:04.408Z,99091.19
2018-06-24T00:18:16.742Z,99088.86
2018-06-24T00:20:29.114Z,99090.81
2018-06-24T00:22:41.578Z,99089.98
2018-06-24T00:24:53.990Z,99089.61
2018-06-24T00:27:06.486Z,99084.47
2018-06-24T00:29:19.054Z,99085.87
2018-06-24T00:31:31.430Z,99083.91
2018-06-24T00:33:44.041Z,99081.48
2018-06-24T00:35:56.398Z,99087.70
2018-06-24T00:38:08.936Z,99085.55
2018-06-24T00:40:21.388Z,99082.17
2018-06-24T00:42:34.044Z,99077.41
2018-06-24T00:44:46.518Z,99075.61
2018-06-24T00:46:58.943Z,99075.50
2018-06-24T00:49:11.466Z,99067.72
2018-06-24T00:51:23.873Z,99060.66
2018-06-24T00:53:36.478Z,99058.69
2018-06-24T00:55:48.938Z,99058.95
2018-06-24T00:58:01.416Z,99058.70
2018-06-24T01:00:17.059Z,99055.52
2018-06-24T01:02:29.465Z,99058.13
2018-06-24T01:04:41.850Z,99059.91
2018-06-24T01:06:54.227Z,99059.11
2018-06-24T01:09:06.749Z,99065.35
2018-06-24T01:11:19.282Z,99066.13
2018-06-24T01:13:31.765Z,99055.62
2018-06-24T01:15:44.153Z,99058.08
2018-06-24T01:17:56.496Z,99056.52
2018-06-24T01:20:09.458Z,99053.23
2018-06-24T01:22:21.921Z,99053.59
2018-06-24T01:24:34.294Z,99051.27
2018-06-24T01:26:46.754Z,99050.89
2018-06-24T01:28:59.190Z,99047.49
2018-06-24T01:31:11.570Z,99040.98
2018-06-24T01:33:23.958Z,99039.88
2018-06-24T01:35:36.297Z,99044.16
2018-06-24T01:37:48.673Z,99041.65
2018-06-24T01:40:00.990Z,99041.39
2018-06-24T01:42:13.637Z,99037.24
2018-06-24T01:44:26.026Z,99044.56
2018-06-24T01:46:38.385Z,99040.55
2018-06-24T01:48:50.788Z,99035.80
2018-06-24T01:51:03.241Z,99041.31
2018-06-24T01:53:15.884Z,99033.20
2018-06-24T01:55:28.429Z,99034.23
2018-06-24T01:57:40.913Z,99034.20
2018-06-24T01:59:53.251Z,99028.42
2018-06-24T02:02:05.707Z,99032.33
2018-06-24T02:04:18.145Z,99030.83
2018-06-24T02:06:30.534Z,99023.73
2018-06-24T02:08:42.998Z,99023.34
2018-06-24T02:10:55.387Z,99026.81
2018-06-24T02:13:07.751Z,99022.91
2018-06-24T02:15:20.137Z,99020.73
2018-06-24T02:17:32.501Z,99025.58
2018-06-24T02:19:44.947Z,99024.11
2018-06-24T02:21:57.298Z,99021.84
2018-06-24T02:24:09.671Z,99022.30
2018-06-24T02:26:22.158Z,99015.31
2018-06-24T02:28:34.474Z,99010.67
2018-06-24T02:30:46.990Z,99008.44
2018-06-24T02:32:59.430Z,99010.30
2018-06-24T02:35:11.876Z,99012.48
2018-06-24T02:37:26.018Z,99007.33
2018-06-24T02:39:38.421Z,99006.86
2018-06-24T02:41:50.888Z,99009.57
2018-06-24T02:44:03.302Z,99005.66
2018-06-24T02:46:15.790Z,99002.59
2018-06-24T02:48:28.148Z,99006.80
2018-06-24T02:50:40.516Z,98999.14
2018-06-24T02:52:52.868Z,98997.81
2018-06-24T02:55:05.278Z,98994.06
2018-06-24T02:57:17.647Z,98995.00
2018-06-24T02:59:30.061Z,98990.98
2018-06-24T03:01:42.430Z,98988.84
2018-06-24T03:03:54.807Z,98989.22
2018-06-24T03:06:07.345Z,98983.64
2018-06-24T03:08:19.803Z,98984.17
2018-06-24T03:10:32.138Z,98984.58
2018-06-24T03:12:44.467Z,98987.18
2018-06-24T03:14:56.834Z,98984.94
2018-06-24T03:17:09.241Z,98992.92
2018-06-24T03:19:21.622Z,98990.13
2018-06-24T03:21:34.085Z,98989.45
2018-06-24T03:23:46.454Z,98991.69
2018-06-24T03:25:58.794Z,98992.89
2018-06-24T03:28:11.130Z,98991.85
2018-06-24T03:30:23.506Z,98993.63
2018-06-24T03:32:35.877Z,98995.56
2018-06-24T03:34:48.243Z,98994.63
2018-06-24T03:37:00.645Z,98997.09
2018-06-24T03:39:13.038Z,98997.29
2018-06-24T03:41:25.399Z,98996.25
2018-06-24T03:43:37.847Z,98997.19
2018-06-24T03:45:50.306Z,99002.14
2018-06-24T03:48:02.660Z,98999.30
2018-06-24T03:50:15.286Z,98999.37
2018-06-24T03:52:27.703Z,98997.70
2018-06-24T03:54:40.254Z,98991.19
2018-06-24T03:56:52.707Z,98994.32
2018-06-24T03:59:05.127Z,98993.02
2018-06-24T04:01:17.556Z,98985.60
2018-06-24T04:03:29.900Z,98991.88
2018-06-24T04:05:42.302Z,98992.81
2018-06-24T04:07:54.739Z,98988.60
2018-06-24T04:10:07.089Z,98988.07
2018-06-24T04:12:19.543Z,98988.44
2018-06-24T04:14:32.106Z,98987.34
2018-06-24T04:16:44.458Z,98997.44
2018-06-24T04:18:57.027Z,98999.50
2018-06-24T04:21:10.690Z,98996.17
2018-06-24T04:23:23.093Z,98993.39
2018-06-24T04:25:35.522Z,98991.83
2018-06-24T04:27:47.897Z,98995.87
2018-06-24T04:30:00.316Z,98999.44
2018-06-24T04:32:12.665Z,98999.71
2018-06-24T04:34:25.117Z,99001.78
2018-06-24T04:36:37.518Z,98998.23
2018-06-24T04:38:50.199Z,98998.87
2018-06-24T04:41:02.974Z,99008.39
2018-06-24T04:43:15.334Z,99013.66
2018-06-24T04:45:28.552Z,99008.19
2018-06-24T04:47:40.935Z,99004.93
2018-06-24T04:49:54.389Z,99002.15
2018-06-24T04:52:06.782Z,99007.55
2018-06-24T04:54:19.148Z,99000.39
2018-06-24T04:56:31.554Z,99006.27
2018-06-24T04:58:44.103Z,99008.64
2018-06-24T05:00:56.495Z,99009.30
2018-06-24T05:03:08.867Z,99001.09
2018-06-24T05:05:21.371Z,99008.56
2018-06-24T05:07:33.757Z,99008.56
2018-06-24T05:09:46.155Z,99006.97
2018-06-24T05:11:58.518Z,99005.41
2018-06-24T05:14:11.001Z,99002.39
2018-06-24T05:16:23.429Z,98999.70
2018-06-24T05:18:36.089Z,99007.43
2018-06-24T05:20:48.406Z,99005.97
2018-06-24T05:23:00.769Z,99006.50
2018-06-24T05:25:13.066Z,99004.10
2018-06-24T05:27:25.569Z,99006.24
2018-06-24T05:29:38.113Z,99002.13
2018-06-24T05:31:50.576Z,99005.38
2018-06-24T05:34:02.982Z,99004.05
2018-06-24T05:36:15.341Z,98999.81
2018-06-24T05:38:27.857Z,98995.01
2018-06-24T05:40:40.295Z,99001.88
2018-06-24T05:42:52.653Z,99001.49
2018-06-24T05:45:05.073Z,99003.13
2018-06-24T05:47:17.408Z,99001.31
2018-06-24T05:49:29.798Z,98990.66
2018-06-24T05:51:42.179Z,98992.04
2018-06-24T05:53:54.582Z,98985.14
2018-06-24T05:56:06.962Z,98989.23
2018-06-24T05:58:19.546Z,98979.12
2018-06-24T06:00:31.987Z,98981.84
2018-06-24T06:02:44.461Z,98986.83
2018-06-24T06:04:58.840Z,98988.20
2018-06-24T06:07:11.231Z,98987.88
2018-06-24T06:09:23.717Z,98985.30
2018-06-24T06:11:36.176Z,98983.94
2018-06-24T06:13:48.575Z,98983.64
2018-06-24T06:16:01.120Z,98977.13
2018-06-24T06:18:13.477Z,98982.89
2018-06-24T06:20:25.897Z,98987.45
2018-06-24T06:22:38.427Z,98992.09
2018-06-24T06:24:50.796Z,98992.19
2018-06-24T06:27:03.344Z,98990.45
2018-06-24T06:29:15.675Z,98997.83
2018-06-24T06:31:28.354Z,98991.61
2018-06-24T06:33:45.409Z,98990.54
2018-06-24T06:35:57.843Z,98997.42
2018-06-24T06:38:10.274Z,98996.77
2018-06-24T06:40:22.652Z,98991.17
2018-06-24T06:42:35.074Z,98984.78
2018-06-24T06:44:47.427Z,98989.56
2018-06-24T06:46:59.942Z,98987.93
2018-06-24T06:49:12.434Z,98992.03
2018-06-24T06:51:24.817Z,98988.73
2018-06-24T06:53:37.270Z,98988.37
2018-06-24T06:55:49.714Z,98991.25
2018-06-24T06:58:02.150Z,98995.20
2018-06-24T07:00:14.655Z,98999.55
2018-06-24T07:02:27.050Z,98999.87
2018-06-24T07:04:39.616Z,98997.47
2018-06-24T07:06:52.968Z,98993.41
2018-06-24T07:09:07.403Z,98992.09
2018-06-24T07:11:19.816Z,98984.11
2018-06-24T07:13:32.306Z,98985.02
2018-06-24T07:15:44.639Z,98984.77
2018-06-24T07:17:57.005Z,98978.58
2018-06-24T07:20:09.548Z,98980.50
2018-06-24T07:22:24.673Z,98981.45
2018-06-24T07:24:37.106Z,98986.69
2018-06-24T07:26:54.449Z,98989.54
2018-06-24T07:29:06.928Z,98976.75
2018-06-24T07:31:19.327Z,98975.59
2018-06-24T07:33:31.918Z,98975.11
2018-06-24T07:35:44.470Z,98974.09
2018-06-24T07:37:57.686Z,98974.41
2018-06-24T07:40:10.158Z,98968.66
2018-06-24T07:42:26.662Z,98958.94
2018-06-24T07:44:39.078Z,98956.71
2018-06-24T07:46:51.505Z,98961.54
2018-06-24T07:49:03.866Z,98955.47
2018-06-24T07:51:16.305Z,98949.59
2018-06-24T07:53:28.621Z,98954.86
2018-06-24T07:55:40.974Z,98953.99
2018-06-24T07:57:54.240Z,98958.34
2018-06-24T08:00:07.738Z,98953.28
2018-06-24T08:02:24.063Z,98946.23
2018-06-24T08:04:37.194Z,98947.80
2018-06-24T08:06:49.663Z,98943.65
2018-06-24T08:09:02.426Z,98947.44
2018-06-24T08:11:14.775Z,98948.55
2018-06-24T08:13:27.158Z,98944.79
2018-06-24T08:15:39.434Z,98944.08
2018-06-24T08:17:51.893Z,98946.69
2018-06-24T08:20:10.499Z,98947.03
2018-06-24T08:22:24.697Z,98944.07
2018-06-24T08:24:37.975Z,98942.92
2018-06-24T08:26:50.857Z,98944.45
2018-06-24T08:29:03.294Z,98940.59
2018-06-24T08:31:15.702Z,98933.77
2018-06-24T08:33:28.094Z,98932.15
2018-06-24T08:35:41.253Z,98933.40
2018-06-24T08:37:53.553Z,98930.75
2018-06-24T08:40:05.950Z,98933.73
2018-06-24T08:42:20.243Z,98930.62
2018-06-24T08:44:32.670Z,98928.80
2018-06-24T08:46:45.057Z,98928.75
2018-06-24T08:48:57.501Z,98929.79
2018-06-24T08:51:09.869Z,98934.32
2018-06-24T08:53:22.260Z,98937.16
2018-06-24T08:55:34.678Z,98939.05
2018-06-24T08:57:47.107Z,98940.85
2018-06-24T08:59:59.594Z,98940.09
2018-06-24T09:02:12.759Z,98942.20
2018-06-24T09:04:25.220Z,98943.14
2018-06-24T09:06:39.435Z,98944.72
2018-06-24T09:08:52.646Z,98941.27
2018-06-24T09:11:05.338Z,98939.27
2018-06-24T09:13:17.766Z,98932.07
2018-06-24T09:15:30.165Z,98937.23
2018-06-24T09:17:42.609Z,98935.58
2018-06-24T09:19:54.894Z,98935.11
2018-06-24T09:22:07.449Z,98937.48
2018-06-24T09:24:19.888Z,98928.89
2018-06-24T09:26:32.278Z,98931.56
2018-06-24T09:28:44.737Z,98933.30
2018-06-24T09:30:57.153Z,98928.53
2018-06-24T09:33:09.667Z,98928.73
2018-06-24T09:35:23.875Z,98927.44
2018-06-24T09:37:36.317Z,98921.07
2018-06-24T09:39:48.824Z,98929.42
2018-06-24T09:42:01.270Z,98920.37
2018-06-24T09:44:13.703Z,98926.48
2018-06-24T09:46:26.091Z,98923.23
2018-06-24T09:48:38.493Z,98924.25
2018-06-24T09:50:50.849Z,98918.05
2018-06-24T09:53:06.136Z,98923.22
2018-06-24T09:55:18.674Z,98921.19
2018-06-24T09:57:31.149Z,98925.23
2018-06-24T09:59:43.542Z,98918.34
2018-06-24T10:01:55.986Z,98916.89
2018-06-24T10:04:08.421Z,98918.98
2018-06-24T10:06:20.916Z,98919.09
2018-06-24T10:08:33.295Z,98913.88
2018-06-24T10:10:45.682Z,98907.95
2018-06-24T10:12:58.070Z,98907.19
2018-06-24T10:15:10.475Z,98904.89
2018-06-24T10:17:23.191Z,98903.94
2018-06-24T10:19:35.554Z,98892.79
2018-06-24T10:21:47.987Z,98896.06
2018-06-24T10:24:00.451Z,98897.75
2018-06-24T10:26:12.990Z,98896.23
2018-06-24T10:28:25.374Z,98898.76
2018-06-24T10:30:37.747Z,98897.70
2018-06-24T10:32:50.252Z,98897.08
2018-06-24T10:35:02.728Z,98895.42
2018-06-24T10:37:17.942Z,98891.17
2018-06-24T10:39:30.322Z,98900.64
2018-06-24T10:41:42.773Z,98891.79
2018-06-24T10:43:55.196Z,98896.57
2018-06-24T10:46:07.544Z,98894.56
2018-06-24T10:48:19.969Z,98887.52
2018-06-24T10:50:32.370Z,98882.00
2018-06-24T10:52:44.790Z,98885.11
2018-06-24T10:54:57.381Z,98882.85
2018-06-24T10:57:09.935Z,98887.75
2018-06-24T10:59:22.426Z,98884.13
2018-06-24T11:01:34.966Z,98888.53
2018-06-24T11:03:47.810Z,98885.23
2018-06-24T11:06:00.376Z,98887.77
2018-06-24T11:08:12.830Z,98885.66
2018-06-24T11:10:25.293Z,98886.77
2018-06-24T11:12:37.930Z,98883.81
2018-06-24T11:14:51.317Z,98887.44
2018-06-24T11:17:03.773Z,98884.16
2018-06-24T11:19:16.278Z,98885.08
2018-06-24T11:21:29.064Z,98884.03
2018-06-24T11:23:41.542Z,98886.87
2018-06-24T11:25:54.456Z,98886.39
2018-06-24T11:28:07.151Z,98890.06
2018-06-24T11:30:21.583Z,98886.09
2018-06-24T11:32:34.147Z,98887.98
2018-06-24T11:34:48.577Z,98881.02
2018-06-24T11:37:01.891Z,98884.03
2018-06-24T11:39:23.196Z,98884.98
2018-06-24T11:41:35.927Z,98879.20
2018-06-24T11:43:48.394Z,98878.58
2018-06-24T11:46:00.876Z,98885.53
2018-06-24T11:48:13.275Z,98886.11
2018-06-24T11:50:25.658Z,98881.73
2018-06-24T11:52:38.027Z,98878.97
2018-06-24T11:54:50.466Z,98884.86
2018-06-24T11:57:03.008Z,98872.21
2018-06-24T11:59:15.328Z,98875.13
2018-06-24T12:01:27.815Z,98872.45
2018-06-24T12:03:40.184Z,98877.95
2018-06-24T12:05:52.599Z,98872.66
2018-06-24T12:08:05.384Z,98868.24
2018-06-24T12:10:17.813Z,98872.45
2018-06-24T12:12:30.223Z,98873.16
2018-06-24T12:14:42.603Z,98872.20
2018-06-24T12:16:56.072Z,98864.95
2018-06-24T12:19:08.703Z,98866.77
2018-06-24T12:21:22.990Z,98865.23
2018-06-24T12:23:35.685Z,98871.34
2018-06-24T12:25:48.084Z,98870.02
2018-06-24T12:28:00.578Z,98868.30
2018-06-24T12:30:12.946Z,98862.17
2018-06-24T12:32:25.397Z,98861.61
2018-06-24T12:34:37.890Z,98861.50
2018-06-24T12:36:50.290Z,98861.22
2018-06-24T12:39:03.833Z,98855.81
2018-06-24T12:41:16.453Z,98859.61
2018-06-24T12:43:28.870Z,98854.95
2018-06-24T12:45:41.284Z,98853.62
2018-06-24T12:47:53.686Z,98852.75
2018-06-24T12:50:06.178Z,98851.70
2018-06-24T12:52:18.577Z,98852.41
2018-06-24T12:54:30.947Z,98852.98
2018-06-24T12:56:43.454Z,98855.08
2018-06-24T12:58:56.163Z,98849.12
2018-06-24T13:01:08.437Z,98854.62
2018-06-24T13:03:20.961Z,98849.66
2018-06-24T13:05:33.496Z,98851.14
2018-06-24T13:07:46.011Z,98849.06
2018-06-24T13:10:01.280Z,98847.41
2018-06-24T13:12:13.745Z,98849.09
2018-06-24T13:14:26.217Z,98842.83
2018-06-24T13:16:38.785Z,98842.67
2018-06-24T13:18:51.251Z,98831.45
2018-06-24T13:21:03.637Z,98836.94
2018-06-24T13:23:16.155Z,98830.31
2018-06-24T13:25:28.614Z,98826.34
2018-06-24T13:27:41.106Z,98829.20
2018-06-24T13:29:53.468Z,98826.64
2018-06-24T13:32:05.857Z,98823.71
2018-06-24T13:34:18.253Z,98827.73
2018-06-24T13:36:30.607Z,98813.83
2018-06-24T13:38:43.050Z,98819.44
2018-06-24T13:40:55.429Z,98809.20
2018-06-24T13:43:09.701Z,98817.83
2018-06-24T13:45:24.913Z,98818.27
2018-06-24T13:47:37.348Z,98814.88
2018-06-24T13:49:49.916Z,98817.17
2018-06-24T13:52:02.330Z,98817.57
2018-06-24T13:54:15.069Z,98817.57
2018-06-24T13:56:27.860Z,98815.16
2018-06-24T13:58:40.367Z,98808.70
2018-06-24T14:00:52.914Z,98811.41
2018-06-24T14:03:05.425Z,98810.91
2018-06-24T14:05:18.058Z,98811.37
2018-06-24T14:07:30.446Z,98809.05
2018-06-24T14:09:42.856Z,98805.95
2018-06-24T14:11:55.257Z,98807.98
2018-06-24T14:14:08.288Z,98805.25
2018-06-24T14:16:21.590Z,98803.48
2018-06-24T14:18:34.090Z,98807.54
2018-06-24T14:20:46.502Z,98801.88
2018-06-24T14:22:58.901Z,98799.80
2018-06-24T14:25:11.252Z,98802.94
2018-06-24T14:27:23.654Z,98799.82
2018-06-24T14:29:36.080Z,98795.75
2018-06-24T14:31:48.546Z,98795.55
2018-06-24T14:34:05.883Z,98792.61
2018-06-24T14:36:18.235Z,98791.41
2018-06-24T14:38:30.730Z,98785.92
2018-06-24T14:40:43.145Z,98791.95
2018-06-24T14:42:55.597Z,98788.02
2018-06-24T14:45:08.089Z,98793.44
2018-06-24T14:47:20.879Z,98789.34
2018-06-24T14:49:33.347Z,98789.30
2018-06-24T14:51:45.760Z,98792.81
2018-06-24T14:53:58.273Z,98788.11
2018-06-24T14:56:10.639Z,98786.79
2018-06-24T14:58:23.208Z,98789.48
2018-06-24T15:00:35.683Z,98780.77
2018-06-24T15:02:48.517Z,98776.55
2018-06-24T15:05:00.943Z,98777.94
2018-06-24T15:07:13.551Z,98779.76
2018-06-24T15:09:26.234Z,98776.79
2018-06-24T15:11:38.916Z,98775.38
2018-06-24T15:13:51.277Z,98769.31
2018-06-24T15:16:03.874Z,98771.66
2018-06-24T15:18:16.311Z,98768.67
2018-06-24T15:20:28.674Z,98773.33
2018-06-24T15:22:41.152Z,98774.79
2018-06-24T15:24:55.303Z,98769.70
2018-06-24T15:27:07.792Z,98764.01
2018-06-24T15:29:20.254Z,98764.01
2018-06-24T15:31:32.703Z,98765.83
2018-06-24T15:33:57.398Z,98765.55
2018-06-24T15:36:09.878Z,98765.67
2018-06-24T15:38:22.576Z,98755.72
2018-06-24T15:40:35.063Z,98752.34
2018-06-24T15:42:47.498Z,98755.23
2018-06-24T15:45:00.587Z,98761.92
2018-06-24T15:47:14.424Z,98753.33
2018-06-24T15:49:27.662Z,98747.30
2018-06-24T15:51:40.283Z,98743.00
2018-06-24T15:53:52.737Z,98747.19
2018-06-24T15:56:05.302Z,98745.68
2018-06-24T15:58:18.263Z,98745.19
2018-06-24T16:00:31.484Z,98747.92
2018-06-24T16:02:43.898Z,98731.06
2018-06-24T16:04:56.337Z,98733.05
2018-06-24T16:07:08.811Z,98729.83
2018-06-24T16:09:21.308Z,98732.07
2018-06-24T16:11:33.792Z,98738.59
2018-06-24T16:13:46.250Z,98736.40
2018-06-24T16:15:58.665Z,98737.14
2018-06-24T16:18:11.090Z,98735.82
2018-06-24T16:20:25.544Z,98737.22
2018-06-24T16:22:37.876Z,98733.09
2018-06-24T16:24:50.232Z,98736.48
2018-06-24T16:27:02.641Z,98733.75
2018-06-24T16:29:15.101Z,98732.14
2018-06-24T16:31:27.458Z,98731.16
2018-06-24T16:33:39.902Z,98737.55
2018-06-24T16:35:52.347Z,98730.53
2018-06-24T16:38:04.862Z,98727.98
2018-06-24T16:40:17.295Z,98722.00
2018-06-24T16:42:29.761Z,98724.47
2018-06-24T16:44:42.158Z,98723.61
2018-06-24T16:46:54.589Z,98718.77
2018-06-24T16:49:07.047Z,98718.73
2018-06-24T16:51:19.439Z,98721.37
2018-06-24T16:53:31.971Z,98722.48
2018-06-24T16:55:44.415Z,98728.18
2018-06-24T16:57:56.877Z,98724.80
2018-06-24T17:00:09.470Z,98721.36
2018-06-24T17:02:21.903Z,98726.52
2018-06-24T17:04:34.532Z,98720.69
2018-06-24T17:06:47.418Z,98717.80
2018-06-24T17:08:59.913Z,98717.56
2018-06-24T17:11:12.363Z,98717.52
2018-06-24T17:13:24.746Z,98715.98
2018-06-24T17:15:37.320Z,98713.50
2018-06-24T17:17:50.783Z,98718.63
2018-06-24T17:20:03.319Z,98719.12
2018-06-24T17:22:15.821Z,98726.21
2018-06-24T17:24:28.374Z,98727.86
2018-06-24T17:26:40.859Z,98728.36
2018-06-24T17:28:53.231Z,98730.45
2018-06-24T17:31:07.451Z,98730.12
2018-06-24T17:33:19.868Z,98721.27
2018-06-24T17:35:32.481Z,98723.70
2018-06-24T17:37:44.945Z,98724.34
2018-06-24T17:39:57.347Z,98722.97
2018-06-24T17:42:09.830Z,98718.36
2018-06-24T17:44:22.237Z,98719.89
2018-06-24T17:46:34.686Z,98721.05
2018-06-24T17:48:47.095Z,98723.93
2018-06-24T17:50:59.562Z,98719.02
2018-06-24T17:53:12.186Z,98721.45
2018-06-24T17:55:24.624Z,98720.20
2018-06-24T17:57:37.091Z,98715.47
2018-06-24T17:59:49.463Z,98719.00
2018-06-24T18:02:01.967Z,98712.02
2018-06-24T18:04:14.403Z,98710.48
2018-06-24T18:06:26.936Z,98714.00
2018-06-24T18:08:39.402Z,98712.97
2018-06-24T18:10:52.047Z,98711.74
2018-06-24T18:13:04.549Z,98717.14
2018-06-24T18:15:16.991Z,98713.55
2018-06-24T18:17:29.354Z,98719.45
2018-06-24T18:19:41.761Z,98717.58
2018-06-24T18:21:54.159Z,98719.39
2018-06-24T18:24:06.581Z,98720.69
2018-06-24T18:26:19.151Z,98719.80
2018-06-24T18:28:31.776Z,98730.06
2018-06-24T18:30:44.255Z,98727.86
2018-06-24T18:32:56.722Z,98727.80
2018-06-24T18:35:09.171Z,98725.44
2018-06-24T18:37:21.630Z,98726.31
2018-06-24T18:39:34.061Z,98733.67
2018-06-24T18:41:46.453Z,98728.89
2018-06-24T18:43:58.847Z,98727.50
2018-06-24T18:46:11.266Z,98732.38
2018-06-24T18:48:23.745Z,98732.16
2018-06-24T18:50:36.218Z,98736.87
2018-06-24T18:52:48.586Z,98741.92
2018-06-24T18:55:01.043Z,98741.09
2018-06-24T18:57:13.435Z,98732.47
2018-06-24T18:59:25.842Z,98737.41
2018-06-24T19:01:38.410Z,98733.88
2018-06-24T19:03:50.864Z,98729.84
2018-06-24T19:06:03.405Z,98732.11
2018-06-24T19:08:15.771Z,98733.24
2018-06-24T19:10:28.241Z,98735.50
2018-06-24T19:12:40.870Z,98735.80
2018-06-24T19:14:53.383Z,98731.19
2018-06-24T19:17:05.865Z,98735.02
2018-06-24T19:19:18.309Z,98740.22
2018-06-24T19:21:31.012Z,98740.00
2018-06-24T19:23:43.487Z,98736.09
2018-06-24T19:25:55.896Z,98737.55
2018-06-24T19:28:08.229Z,98739.73
2018-06-24T19:30:20.774Z,98739.52
2018-06-24T19:32:33.174Z,98740.12
2018-06-24T19:34:45.567Z,98738.23
2018-06-24T19:36:58.005Z,98739.62
2018-06-24T19:39:11.420Z,98743.12
2018-06-24T19:41:23.826Z,98741.80
2018-06-24T19:43:36.276Z,98741.95
2018-06-24T19:45:48.776Z,98738.75
2018-06-24T19:48:01.175Z,98738.03
2018-06-24T19:50:13.566Z,98743.44
2018-06-24T19:52:26.017Z,98746.91
2018-06-24T19:54:38.451Z,98751.45
2018-06-24T19:56:50.857Z,98758.19
2018-06-24T19:59:03.288Z,98759.27
2018-06-24T20:01:15.741Z,98761.56
2018-06-24T20:03:28.222Z,98760.84
2018-06-24T20:05:40.663Z,98762.80
2018-06-24T20:07:53.047Z,98768.17
2018-06-24T20:10:05.494Z,98770.31
2018-06-24T20:12:18.010Z,98767.00
2018-06-24T20:14:30.432Z,98770.46
2018-06-24T20:16:42.866Z,98765.80
2018-06-24T20:18:55.665Z,98773.84
2018-06-24T20:21:08.184Z,98770.03
2018-06-24T20:23:20.633Z,98768.23
2018-06-24T20:25:33.023Z,98771.12
2018-06-24T20:27:45.616Z,98769.91
2018-06-24T20:29:58.022Z,98768.74
2018-06-24T20:32:10.435Z,98770.20
2018-06-24T20:34:22.826Z,98770.20
2018-06-24T20:36:35.208Z,98773.29
2018-06-24T20:38:47.746Z,98774.01
2018-06-24T20:41:00.134Z,98774.52
2018-06-24T20:43:12.550Z,98771.89
2018-06-24T20:45:25.020Z,98766.53
2018-06-24T20:47:37.407Z,98775.52
2018-06-24T20:49:49.818Z,98774.34
2018-06-24T20:52:02.297Z,98775.31
2018-06-24T20:54:14.784Z,98770.98
2018-06-24T20:56:27.306Z,98774.25
2018-06-24T20:58:39.658Z,98780.34
2018-06-24T21:00:52.130Z,98782.73
2018-06-24T21:03:04.825Z,98782.05
2018-06-24T21:05:17.230Z,98785.52
2018-06-24T21:07:29.631Z,98788.14
2018-06-24T21:09:41.967Z,98792.83
2018-06-24T21:11:54.338Z,98783.29
2018-06-24T21:14:06.750Z,98784.27
2018-06-24T21:16:19.249Z,98781.14
2018-06-24T21:18:31.758Z,98793.19
2018-06-24T21:20:44.238Z,98792.02
2018-06-24T21:22:56.635Z,98799.67
2018-06-24T21:25:09.044Z,98790.86
2018-06-24T21:27:21.486Z,98792.52
2018-06-24T21:29:33.943Z,98796.11
2018-06-24T21:31:46.489Z,98798.74
2018-06-24T21:33:58.847Z,98797.16
2018-06-24T21:36:11.483Z,98798.03
2018-06-24T21:38:23.853Z,98793.85
2018-06-24T21:40:36.533Z,98798.77
2018-06-24T21:42:48.938Z,98796.97
2018-06-24T21:45:01.403Z,98796.48
2018-06-24T21:47:13.725Z,98796.73
2018-06-24T21:49:26.194Z,98789.47
2018-06-24T21:51:38.536Z,98787.43
2018-06-24T21:53:50.918Z,98794.25
2018-06-24T21:56:03.408Z,98783.88
2018-06-24T21:58:15.846Z,98797.13
2018-06-24T22:00:28.410Z,98791.66
2018-06-24T22:02:40.831Z,98798.23
2018-06-24T22:04:53.234Z,98793.19
2018-06-24T22:07:05.614Z,98797.75
2018-06-24T22:09:17.930Z,98803.25
2018-06-24T22:11:30.491Z,98805.88
2018-06-24T22:13:43.048Z,98807.45
2018-06-24T22:15:56.322Z,98804.22
2018-06-24T22:18:08.763Z,98810.42
2018-06-24T22:20:21.158Z,98803.98
2018-06-24T22:22:33.619Z,98806.89
2018-06-24T22:24:45.986Z,98800.43
2018-06-24T22:26:58.363Z,98808.66
2018-06-24T22:29:10.753Z,98811.77
2018-06-24T22:31:23.143Z,98811.42
2018-06-24T22:33:35.502Z,98814.89
2018-06-24T22:35:47.974Z,98813.09
2018-06-24T22:38:00.386Z,98813.71
2018-06-24T22:40:12.794Z,98816.34
2018-06-24T22:42:25.254Z,98813.09
2018-06-24T22:44:37.598Z,98822.29
2018-06-24T22:46:50.045Z,98820.97
2018-06-24T22:49:02.491Z,98819.55
2018-06-24T22:51:14.855Z,98828.27
2018-06-24T22:53:27.376Z,98824.22
2018-06-24T22:55:39.849Z,98824.47
2018-06-24T22:57:52.250Z,98830.83
2018-06-24T23:00:16.211Z,98833.45
2018-06-24T23:02:28.681Z,98835.36
2018-06-24T23:04:41.047Z,98838.22
2018-06-24T23:06:53.520Z,98843.72
2018-06-24T23:09:06.974Z,98842.30
2018-06-24T23:11:20.035Z,98841.92
2018-06-24T23:13:32.426Z,98847.66
2018-06-24T23:15:44.767Z,98846.96
2018-06-24T23:17:57.246Z,98852.22
2018-06-24T23:20:09.623Z,98851.48
2018-06-24T23:22:22.169Z,98850.41
2018-06-24T23:24:34.582Z,98851.38
2018-06-24T23:26:46.886Z,98848.62
2018-06-24T23:28:59.322Z,98849.34
2018-06-24T23:31:11.737Z,98849.95
2018-06-24T23:33:24.118Z,98848.40
2018-06-24T23:35:36.533Z,98851.50
2018-06-24T23:37:48.843Z,98843.28
2018-06-24T23:40:01.354Z,98842.20
2018-06-24T23:42:13.718Z,98839.67
2018-06-24T23:44:26.220Z,98836.00
2018-06-24T23:46:38.623Z,98833.23
2018-06-24T23:48:51.159Z,98834.81
2018-06-24T23:51:03.554Z,98830.88
2018-06-24T23:53:16.110Z,98836.36
2018-06-24T23:55:28.507Z,98833.80
2018-06-24T23:57:40.842Z,98835.36
2018-06-24T23:59:53.306Z,98841.70
